Terminal Aerodrome Forecast
Issued by NWS

Home | Current Version | Previous Version | Text Only | Print | Product List | Glossary On
Versions: 1 2 3 4 5 6 7 8 9 10 11 12 13 14
000
FTUS42 KMLB 012300 RRA
TAFSFB
TAF
KSFB 012342Z 0200/0224 11006KT P6SM SCT250
     FM020200 VRB03KT P6SM SCT250
     FM021400 11005KT P6SM SCT025
     FM021800 10009KT P6SM SCT050=

USA.gov is the U.S. government's official web portal to all federal, state and local government web resources and services.